createdAt,value
2023-03-18T00:00:49.290Z,9.25
2023-03-18T00:03:17.731Z,9.26
2023-03-18T00:05:45.844Z,9.27
2023-03-18T00:08:13.406Z,9.28
2023-03-18T00:10:40.899Z,9.28
2023-03-18T00:13:08.209Z,9.27
2023-03-18T00:15:37.769Z,9.27
2023-03-18T00:18:05.526Z,9.27
2023-03-18T00:20:39.097Z,9.29
2023-03-18T00:23:08.665Z,9.29
2023-03-18T00:25:37.622Z,9.28
2023-03-18T00:28:07.159Z,9.28
2023-03-18T00:30:38.218Z,9.28
2023-03-18T00:33:09.719Z,9.27
2023-03-18T00:35:39.563Z,9.27
2023-03-18T00:38:09.039Z,9.28
2023-03-18T00:40:53.637Z,9.27
2023-03-18T00:43:23.250Z,9.26
2023-03-18T00:45:51.243Z,9.26
2023-03-18T00:48:19.038Z,9.26
2023-03-18T00:50:46.805Z,9.27
2023-03-18T00:53:14.461Z,9.26
2023-03-18T00:55:42.295Z,9.26
2023-03-18T00:58:10.672Z,9.27
2023-03-18T01:00:40.013Z,9.29
2023-03-18T01:03:09.080Z,9.28
2023-03-18T01:05:38.261Z,9.32
2023-03-18T01:08:06.191Z,9.33
2023-03-18T01:10:34.566Z,9.34
2023-03-18T01:13:03.448Z,9.35
2023-03-18T01:15:30.918Z,9.35
2023-03-18T01:17:58.445Z,9.35
2023-03-18T01:20:26.580Z,9.34
2023-03-18T01:22:57.001Z,9.35
2023-03-18T01:25:24.726Z,9.33
2023-03-18T01:27:54.529Z,9.30
2023-03-18T01:30:23.687Z,9.28
2023-03-18T01:32:54.053Z,9.26
2023-03-18T01:35:22.028Z,9.24
2023-03-18T01:37:51.574Z,9.20
2023-03-18T01:40:19.459Z,9.16
2023-03-18T01:42:55.908Z,9.11
2023-03-18T01:45:28.724Z,9.07
2023-03-18T01:47:58.619Z,9.02
2023-03-18T01:50:30.841Z,8.94
2023-03-18T01:53:20.394Z,8.88
2023-03-18T01:55:50.784Z,8.83
2023-03-18T01:58:25.480Z,8.77
2023-03-18T02:00:59.507Z,8.71
2023-03-18T02:03:28.742Z,8.67
2023-03-18T02:05:56.310Z,8.62
2023-03-18T02:08:23.653Z,8.56
2023-03-18T02:10:51.867Z,8.53
2023-03-18T02:13:20.021Z,8.48
2023-03-18T02:15:57.187Z,8.45
2023-03-18T02:18:33.781Z,8.40
2023-03-18T02:21:16.665Z,8.36
2023-03-18T02:24:29.796Z,8.31
2023-03-18T02:27:05.158Z,8.28
2023-03-18T02:29:42.508Z,8.25
2023-03-18T02:32:16.626Z,8.24
2023-03-18T02:34:45.687Z,8.22
2023-03-18T02:37:13.617Z,8.22
2023-03-18T02:39:43.043Z,8.20
2023-03-18T02:42:14.292Z,8.20
2023-03-18T02:44:48.386Z,8.20
2023-03-18T02:47:47.359Z,8.19
2023-03-18T02:50:15.972Z,8.18
2023-03-18T02:52:43.314Z,8.16
2023-03-18T02:55:10.768Z,8.15
2023-03-18T02:57:38.054Z,8.13
2023-03-18T03:00:06.090Z,8.11
2023-03-18T03:02:34.671Z,8.09
2023-03-18T03:05:03.155Z,8.07
2023-03-18T03:07:30.726Z,8.05
2023-03-18T03:10:00.032Z,8.03
2023-03-18T03:12:27.428Z,8.02
2023-03-18T03:14:57.668Z,8.00
2023-03-18T03:17:27.984Z,7.99
2023-03-18T03:19:55.836Z,7.99
2023-03-18T03:22:23.222Z,7.98
2023-03-18T03:24:50.621Z,7.96
2023-03-18T03:27:18.410Z,7.97
2023-03-18T03:29:45.695Z,7.97
2023-03-18T03:32:13.043Z,7.98
2023-03-18T03:34:40.361Z,7.98
2023-03-18T03:37:08.343Z,7.99
2023-03-18T03:39:35.574Z,8.00
2023-03-18T03:42:02.961Z,7.99
2023-03-18T03:44:30.382Z,7.97
2023-03-18T03:46:59.061Z,7.96
2023-03-18T03:49:26.536Z,7.94
2023-03-18T03:51:53.854Z,7.92
2023-03-18T03:54:23.585Z,7.88
2023-03-18T03:56:51.600Z,7.84
2023-03-18T03:59:19.709Z,7.80
2023-03-18T04:02:05.307Z,7.74
2023-03-18T04:04:32.883Z,7.71
2023-03-18T04:07:00.902Z,7.67
2023-03-18T04:09:28.283Z,7.62
2023-03-18T04:11:56.360Z,7.58
2023-03-18T04:14:24.085Z,7.56
2023-03-18T04:16:51.456Z,7.54
2023-03-18T04:19:19.013Z,7.53
2023-03-18T04:21:46.600Z,7.52
2023-03-18T04:24:13.894Z,7.53
2023-03-18T04:26:41.559Z,7.54
2023-03-18T04:29:09.537Z,7.55
2023-03-18T04:31:37.320Z,7.55
2023-03-18T04:34:05.167Z,7.57
2023-03-18T04:36:32.997Z,7.57
2023-03-18T04:39:00.343Z,7.57
2023-03-18T04:41:28.529Z,7.56
2023-03-18T04:43:58.642Z,7.55
2023-03-18T04:46:34.133Z,7.55
2023-03-18T04:49:01.673Z,7.54
2023-03-18T04:51:30.114Z,7.54
2023-03-18T04:53:58.039Z,7.55
2023-03-18T04:56:29.926Z,7.56
2023-03-18T04:58:58.684Z,7.56
2023-03-18T05:01:30.512Z,7.57
2023-03-18T05:03:58.326Z,7.57
2023-03-18T05:06:33.687Z,7.57
2023-03-18T05:09:13.378Z,7.55
2023-03-18T05:11:42.761Z,7.53
2023-03-18T05:14:29.353Z,7.51
2023-03-18T05:16:57.693Z,7.47
2023-03-18T05:19:25.892Z,7.44
2023-03-18T05:22:03.270Z,7.40
2023-03-18T05:24:31.301Z,7.39
2023-03-18T05:26:58.896Z,7.35
2023-03-18T05:29:33.240Z,7.34
2023-03-18T05:32:17.371Z,7.33
2023-03-18T05:34:47.836Z,7.33
2023-03-18T05:37:17.961Z,7.33
2023-03-18T05:40:11.630Z,7.33
2023-03-18T05:42:55.413Z,7.34
2023-03-18T05:45:32.302Z,7.35
2023-03-18T05:47:59.871Z,7.38
2023-03-18T05:50:37.139Z,7.42
2023-03-18T05:53:09.474Z,7.46
2023-03-18T05:55:40.497Z,7.50
2023-03-18T05:58:08.608Z,7.55
2023-03-18T06:00:38.036Z,7.58
2023-03-18T06:03:05.768Z,7.62
2023-03-18T06:05:34.081Z,7.68
2023-03-18T06:08:02.943Z,7.73
2023-03-18T06:10:30.592Z,7.76
2023-03-18T06:12:58.013Z,7.80
2023-03-18T06:15:25.783Z,7.85
2023-03-18T06:17:53.131Z,7.87
2023-03-18T06:20:20.648Z,7.89
2023-03-18T06:22:51.716Z,7.90
2023-03-18T06:25:20.603Z,7.91
2023-03-18T06:27:50.107Z,7.93
2023-03-18T06:30:21.483Z,7.94
2023-03-18T06:32:49.722Z,7.96
2023-03-18T06:35:20.419Z,7.99
2023-03-18T06:37:48.706Z,8.00
2023-03-18T06:40:17.444Z,8.04
2023-03-18T06:42:46.445Z,8.06
2023-03-18T06:45:25.667Z,8.10
2023-03-18T06:48:01.021Z,8.12
2023-03-18T06:50:32.146Z,8.16
2023-03-18T06:53:00.121Z,8.19
2023-03-18T06:55:31.210Z,8.22
2023-03-18T06:57:59.527Z,8.26
2023-03-18T07:00:36.551Z,8.30
2023-03-18T07:03:06.021Z,8.33
2023-03-18T07:05:35.134Z,8.36
2023-03-18T07:08:05.550Z,8.39
2023-03-18T07:10:33.081Z,8.40
2023-03-18T07:13:10.504Z,8.46
2023-03-18T07:15:40.559Z,8.49
2023-03-18T07:18:09.837Z,8.51
2023-03-18T07:20:39.121Z,8.55
2023-03-18T07:23:06.677Z,8.57
2023-03-18T07:25:34.525Z,8.63
2023-03-18T07:28:02.120Z,8.70
2023-03-18T07:30:29.631Z,8.82
2023-03-18T07:32:57.643Z,8.95
2023-03-18T07:35:27.942Z,9.14
2023-03-18T07:37:55.405Z,9.38
2023-03-18T07:40:23.884Z,9.57
2023-03-18T07:42:51.747Z,9.71
2023-03-18T07:45:19.250Z,10.00
2023-03-18T07:47:47.376Z,10.33
2023-03-18T07:50:17.325Z,10.60
2023-03-18T07:52:44.904Z,10.89
2023-03-18T07:55:12.416Z,11.15
2023-03-18T07:57:40.810Z,11.39
2023-03-18T08:00:11.580Z,11.75
2023-03-18T08:02:42.273Z,11.98
2023-03-18T08:05:10.941Z,12.25
2023-03-18T08:07:38.378Z,12.32
2023-03-18T08:10:06.542Z,12.28
2023-03-18T08:12:49.338Z,12.17
2023-03-18T08:15:19.956Z,11.99
2023-03-18T08:17:47.381Z,11.89
2023-03-18T08:20:15.490Z,11.80
2023-03-18T08:22:42.969Z,11.72
2023-03-18T08:25:11.603Z,11.62
2023-03-18T08:27:39.181Z,11.55
2023-03-18T08:30:07.110Z,11.48
2023-03-18T08:32:35.374Z,11.46
2023-03-18T08:35:05.433Z,11.47
2023-03-18T08:37:32.920Z,11.44
2023-03-18T08:40:00.294Z,11.44
2023-03-18T08:42:28.004Z,11.49
2023-03-18T08:44:55.590Z,11.62
2023-03-18T08:47:25.503Z,11.79
2023-03-18T08:49:53.286Z,11.87
2023-03-18T08:52:20.667Z,11.93
2023-03-18T08:54:48.070Z,11.95
2023-03-18T08:57:16.359Z,11.95
2023-03-18T08:59:43.675Z,12.00
2023-03-18T09:02:18.770Z,12.04
2023-03-18T09:04:48.306Z,12.12
2023-03-18T09:07:17.935Z,12.15
2023-03-18T09:09:46.349Z,12.18
2023-03-18T09:12:14.407Z,12.16
2023-03-18T09:14:44.203Z,12.14
2023-03-18T09:17:11.755Z,12.12
2023-03-18T09:19:39.702Z,12.07
2023-03-18T09:22:07.394Z,11.98
2023-03-18T09:24:35.219Z,11.95
2023-03-18T09:27:02.763Z,11.95
2023-03-18T09:29:30.048Z,11.96
2023-03-18T09:31:57.436Z,11.94
2023-03-18T09:34:25.125Z,11.97
2023-03-18T09:36:52.630Z,11.98
2023-03-18T09:39:21.264Z,11.99
2023-03-18T09:41:48.864Z,12.01
2023-03-18T09:44:34.311Z,12.02
2023-03-18T09:47:25.563Z,12.00
2023-03-18T09:50:16.321Z,11.97
2023-03-18T09:52:52.446Z,11.92
2023-03-18T09:55:49.856Z,11.92
2023-03-18T09:58:58.556Z,11.94
2023-03-18T10:01:28.799Z,11.97
2023-03-18T10:04:21.434Z,11.97
2023-03-18T10:06:53.753Z,11.96
2023-03-18T10:09:28.918Z,11.96
2023-03-18T10:12:10.302Z,12.01
2023-03-18T10:14:52.894Z,12.05
2023-03-18T10:17:41.309Z,12.04
2023-03-18T10:20:18.098Z,12.08
2023-03-18T10:23:15.875Z,12.14
2023-03-18T10:25:58.049Z,12.21
2023-03-18T10:28:50.191Z,12.35
2023-03-18T10:31:37.952Z,12.53
2023-03-18T10:34:57.198Z,12.75
2023-03-18T10:37:35.058Z,12.95
2023-03-18T10:40:10.742Z,13.16
2023-03-18T10:42:38.563Z,13.36
2023-03-18T10:45:22.350Z,13.54
2023-03-18T10:48:15.133Z,13.61
2023-03-18T10:50:47.006Z,13.67
2023-03-18T10:53:28.590Z,13.78
2023-03-18T10:56:05.397Z,13.88
2023-03-18T10:58:33.206Z,13.97
2023-03-18T11:01:01.044Z,14.07
2023-03-18T11:03:35.764Z,14.13
2023-03-18T11:06:07.407Z,14.21
2023-03-18T11:08:40.212Z,14.23
2023-03-18T11:11:32.990Z,14.32
2023-03-18T11:14:05.012Z,14.31
2023-03-18T11:16:42.760Z,14.20
2023-03-18T11:19:25.528Z,14.17
2023-03-18T11:22:02.852Z,14.15
2023-03-18T11:24:42.323Z,14.07
2023-03-18T11:27:18.506Z,14.08
2023-03-18T11:29:54.827Z,14.20
2023-03-18T11:32:27.849Z,14.35
2023-03-18T11:35:00.884Z,14.31
2023-03-18T11:37:40.789Z,14.28
2023-03-18T11:40:14.236Z,14.38
2023-03-18T11:42:42.669Z,14.48
2023-03-18T11:45:40.830Z,14.60
2023-03-18T11:48:17.802Z,14.65
2023-03-18T11:50:57.457Z,14.67
2023-03-18T11:53:53.627Z,14.71
2023-03-18T11:56:31.142Z,14.69
2023-03-18T11:59:10.703Z,14.66
2023-03-18T12:01:53.591Z,14.59
2023-03-18T12:04:38.061Z,14.55
2023-03-18T12:07:22.025Z,14.53
2023-03-18T12:10:13.567Z,14.54
2023-03-18T12:13:08.472Z,14.54
2023-03-18T12:15:49.709Z,14.56
2023-03-18T12:18:56.473Z,14.46
2023-03-18T12:21:36.762Z,14.40
2023-03-18T12:24:52.867Z,14.28
2023-03-18T12:27:57.997Z,14.21
2023-03-18T12:30:38.500Z,14.13
2023-03-18T12:33:21.583Z,14.10
2023-03-18T12:36:13.365Z,14.18
2023-03-18T12:39:08.217Z,14.31
2023-03-18T12:41:47.008Z,14.41
2023-03-18T12:44:22.935Z,14.47
2023-03-18T12:47:04.836Z,14.53
2023-03-18T12:49:35.111Z,14.57
2023-03-18T12:52:08.355Z,14.59
2023-03-18T12:55:15.803Z,14.58
2023-03-18T12:57:55.432Z,14.58
2023-03-18T13:00:54.419Z,14.72
2023-03-18T13:03:33.687Z,14.90
2023-03-18T13:06:05.471Z,15.08
2023-03-18T13:08:38.918Z,15.21
2023-03-18T13:11:45.468Z,15.28
2023-03-18T13:14:34.680Z,15.34
2023-03-18T13:17:04.854Z,15.35
2023-03-18T13:19:35.462Z,15.38
2023-03-18T13:22:28.995Z,15.36
2023-03-18T13:25:03.897Z,15.35
2023-03-18T13:27:53.366Z,15.32
2023-03-18T13:30:48.817Z,15.30
2023-03-18T13:33:32.872Z,15.34
2023-03-18T13:36:34.761Z,15.37
2023-03-18T13:39:21.206Z,15.37
2023-03-18T13:42:23.659Z,15.31
2023-03-18T13:44:58.789Z,15.26
2023-03-18T13:47:30.823Z,15.21
2023-03-18T13:50:30.357Z,15.20
2023-03-18T13:53:00.493Z,15.23
2023-03-18T13:55:45.555Z,15.27
2023-03-18T13:58:16.899Z,15.29
2023-03-18T14:00:46.563Z,15.28
2023-03-18T14:03:22.247Z,15.27
2023-03-18T14:05:52.188Z,15.23
2023-03-18T14:08:38.444Z,15.21
2023-03-18T14:11:23.133Z,15.23
2023-03-18T14:14:29.770Z,15.20
2023-03-18T14:16:57.509Z,15.17
2023-03-18T14:19:32.893Z,15.15
2023-03-18T14:22:13.777Z,15.13
2023-03-18T14:24:41.235Z,15.12
2023-03-18T14:27:08.746Z,15.13
2023-03-18T14:29:45.053Z,15.13
2023-03-18T14:32:38.848Z,15.13
2023-03-18T14:35:18.565Z,15.11
2023-03-18T14:38:11.197Z,15.08
2023-03-18T14:40:43.896Z,15.04
2023-03-18T14:43:18.710Z,15.01
2023-03-18T14:45:49.636Z,14.98
2023-03-18T14:48:25.258Z,14.96
2023-03-18T14:50:54.876Z,14.93
2023-03-18T14:53:34.897Z,14.93
2023-03-18T14:56:04.107Z,14.93
2023-03-18T14:58:33.968Z,14.92
2023-03-18T15:01:09.981Z,14.91
2023-03-18T15:03:40.680Z,14.91
2023-03-18T15:06:08.292Z,14.93
2023-03-18T15:08:47.818Z,14.97
2023-03-18T15:11:18.858Z,15.01
2023-03-18T15:13:46.498Z,15.08
2023-03-18T15:16:18.855Z,15.13
2023-03-18T15:18:52.732Z,15.15
2023-03-18T15:21:24.678Z,15.14
2023-03-18T15:23:55.748Z,15.11
2023-03-18T15:26:35.104Z,15.07
2023-03-18T15:29:18.304Z,15.03
2023-03-18T15:31:45.699Z,14.99
2023-03-18T15:34:22.476Z,14.94
2023-03-18T15:36:58.066Z,14.91
2023-03-18T15:39:32.367Z,14.89
2023-03-18T15:42:03.260Z,14.87
2023-03-18T15:44:35.822Z,14.83
2023-03-18T15:47:22.167Z,14.82
2023-03-18T15:49:54.819Z,14.77
2023-03-18T15:52:25.499Z,14.73
2023-03-18T15:54:53.477Z,14.67
2023-03-18T15:57:32.036Z,14.62
2023-03-18T16:00:00.160Z,14.58
2023-03-18T16:02:28.926Z,14.55
2023-03-18T16:05:29.333Z,14.50
2023-03-18T16:07:57.008Z,14.45
2023-03-18T16:10:26.547Z,14.40
2023-03-18T16:12:58.097Z,14.36
2023-03-18T16:15:26.423Z,14.31
2023-03-18T16:17:55.670Z,14.26
2023-03-18T16:20:28.985Z,14.22
2023-03-18T16:22:57.882Z,14.18
2023-03-18T16:25:26.249Z,14.15
2023-03-18T16:27:59.446Z,14.11
2023-03-18T16:30:30.710Z,14.07
2023-03-18T16:32:59.351Z,14.01
2023-03-18T16:35:32.788Z,13.96
2023-03-18T16:38:01.028Z,13.90
2023-03-18T16:40:31.499Z,13.83
2023-03-18T16:42:59.276Z,13.76
2023-03-18T16:45:33.973Z,13.66
2023-03-18T16:48:04.991Z,13.55
2023-03-18T16:50:36.517Z,13.45
2023-03-18T16:53:13.133Z,13.36
2023-03-18T16:55:40.600Z,13.26
2023-03-18T16:58:13.553Z,13.17
2023-03-18T17:00:40.792Z,13.02
2023-03-18T17:03:11.672Z,12.84
2023-03-18T17:05:39.432Z,12.67
2023-03-18T17:08:06.704Z,12.53
2023-03-18T17:10:34.338Z,12.41
2023-03-18T17:13:09.395Z,12.27
2023-03-18T17:15:38.232Z,12.16
2023-03-18T17:18:07.762Z,12.09
2023-03-18T17:20:35.173Z,12.00
2023-03-18T17:23:05.688Z,11.94
2023-03-18T17:25:33.474Z,11.88
2023-03-18T17:28:07.413Z,11.84
2023-03-18T17:30:37.030Z,11.82
2023-03-18T17:33:31.225Z,11.79
2023-03-18T17:36:01.867Z,11.74
2023-03-18T17:38:31.095Z,11.66
2023-03-18T17:40:59.544Z,11.57
2023-03-18T17:43:35.519Z,11.48
2023-03-18T17:46:05.204Z,11.42
2023-03-18T17:48:34.364Z,11.38
2023-03-18T17:51:06.667Z,11.32
2023-03-18T17:53:40.331Z,11.26
2023-03-18T17:56:11.602Z,11.20
2023-03-18T17:58:41.725Z,11.15
2023-03-18T18:01:15.619Z,11.11
2023-03-18T18:03:43.772Z,11.05
2023-03-18T18:06:20.537Z,11.01
2023-03-18T18:08:49.064Z,10.97
2023-03-18T18:11:21.194Z,10.94
2023-03-18T18:13:50.214Z,10.88
2023-03-18T18:16:18.951Z,10.84
2023-03-18T18:18:50.339Z,10.79
2023-03-18T18:21:23.673Z,10.73
2023-03-18T18:23:51.354Z,10.69
2023-03-18T18:26:20.238Z,10.65
2023-03-18T18:28:52.295Z,10.59
2023-03-18T18:31:21.927Z,10.53
2023-03-18T18:33:50.425Z,10.49
2023-03-18T18:36:18.434Z,10.43
2023-03-18T18:38:46.028Z,10.39
2023-03-18T18:41:14.340Z,10.36
2023-03-18T18:43:41.810Z,10.32
2023-03-18T18:46:16.974Z,10.31
2023-03-18T18:48:48.552Z,10.28
2023-03-18T18:51:19.028Z,10.27
2023-03-18T18:53:47.514Z,10.25
2023-03-18T18:56:29.400Z,10.22
2023-03-18T18:58:58.225Z,10.23
2023-03-18T19:01:26.231Z,10.22
2023-03-18T19:03:54.204Z,10.22
2023-03-18T19:06:25.420Z,10.19
2023-03-18T19:08:55.732Z,10.14
2023-03-18T19:11:25.434Z,10.13
2023-03-18T19:13:53.779Z,10.09
2023-03-18T19:16:33.919Z,10.07
2023-03-18T19:19:03.468Z,10.02
2023-03-18T19:21:31.596Z,10.01
2023-03-18T19:24:06.796Z,9.98
2023-03-18T19:26:34.699Z,9.97
2023-03-18T19:29:04.784Z,9.93
2023-03-18T19:31:35.081Z,9.91
2023-03-18T19:34:10.794Z,9.92
2023-03-18T19:36:41.706Z,9.93
2023-03-18T19:39:14.755Z,9.94
2023-03-18T19:41:43.077Z,9.94
2023-03-18T19:44:18.551Z,9.96
2023-03-18T19:46:47.660Z,9.95
2023-03-18T19:49:22.255Z,9.95
2023-03-18T19:51:51.162Z,9.96
2023-03-18T19:54:47.992Z,9.98
2023-03-18T19:57:31.820Z,10.00
2023-03-18T20:00:03.942Z,9.98
2023-03-18T20:02:34.606Z,9.98
2023-03-18T20:05:14.344Z,9.98
2023-03-18T20:07:42.435Z,9.99
2023-03-18T20:10:14.041Z,9.97
2023-03-18T20:12:45.048Z,9.96
2023-03-18T20:15:24.768Z,9.96
2023-03-18T20:17:53.072Z,9.95
2023-03-18T20:20:27.609Z,9.94
2023-03-18T20:23:01.331Z,9.93
2023-03-18T20:25:37.243Z,9.90
2023-03-18T20:28:07.480Z,9.87
2023-03-18T20:30:37.305Z,9.83
2023-03-18T20:33:05.724Z,9.80
2023-03-18T20:35:36.946Z,9.78
2023-03-18T20:38:12.919Z,9.72
2023-03-18T20:40:42.516Z,9.69
2023-03-18T20:43:15.807Z,9.66
2023-03-18T20:45:43.660Z,9.62
2023-03-18T20:48:11.123Z,9.58
2023-03-18T20:50:38.901Z,9.55
2023-03-18T20:53:11.093Z,9.50
2023-03-18T20:55:38.275Z,9.46
2023-03-18T20:58:07.250Z,9.41
2023-03-18T21:00:34.821Z,9.37
2023-03-18T21:03:06.696Z,9.32
2023-03-18T21:05:34.409Z,9.29
2023-03-18T21:08:02.344Z,9.24
2023-03-18T21:10:31.189Z,9.21
2023-03-18T21:13:00.528Z,9.17
2023-03-18T21:15:28.912Z,9.14
2023-03-18T21:17:56.264Z,9.09
2023-03-18T21:20:32.615Z,9.06
2023-03-18T21:23:00.189Z,9.01
2023-03-18T21:25:28.884Z,9.00
2023-03-18T21:27:56.387Z,8.96
2023-03-18T21:30:24.054Z,8.92
2023-03-18T21:32:51.519Z,8.90
2023-03-18T21:35:26.372Z,8.87
2023-03-18T21:37:53.911Z,8.86
2023-03-18T21:40:25.315Z,8.83
2023-03-18T21:42:55.719Z,8.81
2023-03-18T21:45:25.815Z,8.80
2023-03-18T21:47:53.178Z,8.78
2023-03-18T21:50:30.837Z,8.76
2023-03-18T21:52:59.125Z,8.74
2023-03-18T21:55:33.229Z,8.74
2023-03-18T21:58:00.952Z,8.70
2023-03-18T22:00:33.465Z,8.67
2023-03-18T22:03:00.821Z,8.65
2023-03-18T22:05:29.091Z,8.65
2023-03-18T22:07:56.926Z,8.64
2023-03-18T22:10:24.534Z,8.63
2023-03-18T22:12:52.106Z,8.61
2023-03-18T22:15:25.473Z,8.59
2023-03-18T22:17:53.007Z,8.58
2023-03-18T22:20:20.821Z,8.57
2023-03-18T22:22:50.519Z,8.57
2023-03-18T22:25:34.955Z,8.56
2023-03-18T22:28:04.381Z,8.58
2023-03-18T22:30:34.407Z,8.61
2023-03-18T22:33:03.842Z,8.63
2023-03-18T22:35:31.496Z,8.64
2023-03-18T22:37:59.087Z,8.67
2023-03-18T22:40:31.873Z,8.69
2023-03-18T22:43:03.928Z,8.72
2023-03-18T22:45:33.620Z,8.77
2023-03-18T22:48:05.005Z,8.79
2023-03-18T22:50:35.000Z,8.83
2023-03-18T22:53:13.695Z,8.86
2023-03-18T22:55:41.577Z,8.88
2023-03-18T22:58:19.437Z,8.90
2023-03-18T23:00:48.412Z,8.93
2023-03-18T23:03:20.136Z,8.95
2023-03-18T23:05:52.365Z,8.98
2023-03-18T23:08:21.192Z,9.00
2023-03-18T23:10:51.029Z,9.00
2023-03-18T23:13:36.244Z,9.02
2023-03-18T23:16:11.623Z,9.02
2023-03-18T23:48:11.761Z,8.79
2023-03-18T23:50:39.461Z,8.79
2023-03-18T23:53:06.720Z,8.79
2023-03-18T23:55:35.558Z,8.81
2023-03-18T23:58:04.394Z,8.82
